sensor_id;sensor_type;location;lat;lon;timestamp;P1;durP1;ratioP1;P2;durP2;ratioP2
1410;SDS011;700;51.906;8.404;2022-10-17T00:02:34;5.60;;;4.10;;
1410;SDS011;700;51.906;8.404;2022-10-17T00:07:37;10.03;;;4.40;;
1410;SDS011;700;51.906;8.404;2022-10-17T00:12:38;5.07;;;4.57;;
1410;SDS011;700;51.906;8.404;2022-10-17T00:17:39;5.17;;;4.77;;
1410;SDS011;700;51.906;8.404;2022-10-17T00:22:41;6.23;;;5.30;;
1410;SDS011;700;51.906;8.404;2022-10-17T00:27:42;6.40;;;5.53;;
1410;SDS011;700;51.906;8.404;2022-10-17T00:32:45;7.30;;;5.40;;
1410;SDS011;700;51.906;8.404;2022-10-17T00:37:45;7.50;;;5.33;;
1410;SDS011;700;51.906;8.404;2022-10-17T00:42:48;5.53;;;5.10;;
1410;SDS011;700;51.906;8.404;2022-10-17T00:48:10;7.40;;;5.90;;
1410;SDS011;700;51.906;8.404;2022-10-17T00:53:12;6.20;;;5.70;;
1410;SDS011;700;51.906;8.404;2022-10-17T00:58:13;6.63;;;6.03;;
1410;SDS011;700;51.906;8.404;2022-10-17T01:03:15;7.60;;;6.80;;
1410;SDS011;700;51.906;8.404;2022-10-17T01:08:16;7.90;;;6.30;;
1410;SDS011;700;51.906;8.404;2022-10-17T01:13:20;7.20;;;5.97;;
1410;SDS011;700;51.906;8.404;2022-10-17T01:39:49;7.87;;;6.77;;
1410;SDS011;700;51.906;8.404;2022-10-17T01:44:54;7.33;;;6.73;;
1410;SDS011;700;51.906;8.404;2022-10-17T01:50:17;8.60;;;7.10;;
1410;SDS011;700;51.906;8.404;2022-10-17T01:55:27;7.63;;;6.80;;
1410;SDS011;700;51.906;8.404;2022-10-17T02:00:34;8.43;;;7.73;;
1410;SDS011;700;51.906;8.404;2022-10-17T02:05:38;8.83;;;7.30;;
1410;SDS011;700;51.906;8.404;2022-10-17T02:10:53;7.67;;;7.07;;
1410;SDS011;700;51.906;8.404;2022-10-17T02:27:05;7.80;;;6.93;;
1410;SDS011;700;51.906;8.404;2022-10-17T02:32:12;9.70;;;7.17;;
1410;SDS011;700;51.906;8.404;2022-10-17T02:37:26;7.87;;;7.10;;
1410;SDS011;700;51.906;8.404;2022-10-17T02:42:28;8.73;;;7.87;;
1410;SDS011;700;51.906;8.404;2022-10-17T02:47:45;9.53;;;7.77;;
1410;SDS011;700;51.906;8.404;2022-10-17T02:52:56;8.83;;;8.03;;
1410;SDS011;700;51.906;8.404;2022-10-17T02:58:07;9.17;;;8.37;;
1410;SDS011;700;51.906;8.404;2022-10-17T03:08:21;8.80;;;8.00;;
1410;SDS011;700;51.906;8.404;2022-10-17T03:13:23;8.40;;;7.50;;
1410;SDS011;700;51.906;8.404;2022-10-17T03:18:23;8.30;;;7.50;;
1410;SDS011;700;51.906;8.404;2022-10-17T03:23:24;12.80;;;7.90;;
1410;SDS011;700;51.906;8.404;2022-10-17T03:28:25;10.10;;;8.13;;
1410;SDS011;700;51.906;8.404;2022-10-17T03:33:25;10.00;;;8.00;;
1410;SDS011;700;51.906;8.404;2022-10-17T03:38:28;8.80;;;7.73;;
1410;SDS011;700;51.906;8.404;2022-10-17T03:43:29;11.70;;;8.07;;
1410;SDS011;700;51.906;8.404;2022-10-17T03:48:30;9.03;;;7.60;;
1410;SDS011;700;51.906;8.404;2022-10-17T03:53:35;8.40;;;7.70;;
1410;SDS011;700;51.906;8.404;2022-10-17T03:58:36;10.13;;;7.80;;
1410;SDS011;700;51.906;8.404;2022-10-17T04:03:37;9.50;;;7.80;;
1410;SDS011;700;51.906;8.404;2022-10-17T04:08:39;11.87;;;8.20;;
1410;SDS011;700;51.906;8.404;2022-10-17T04:13:44;9.00;;;8.07;;
1410;SDS011;700;51.906;8.404;2022-10-17T04:18:45;8.83;;;7.30;;
1410;SDS011;700;51.906;8.404;2022-10-17T04:23:46;8.47;;;7.67;;
1410;SDS011;700;51.906;8.404;2022-10-17T04:28:46;10.00;;;9.07;;
1410;SDS011;700;51.906;8.404;2022-10-17T04:33:47;15.23;;;9.20;;
1410;SDS011;700;51.906;8.404;2022-10-17T04:38:51;9.80;;;8.73;;
1410;SDS011;700;51.906;8.404;2022-10-17T04:43:52;10.00;;;9.10;;
1410;SDS011;700;51.906;8.404;2022-10-17T04:48:55;9.37;;;8.10;;
1410;SDS011;700;51.906;8.404;2022-10-17T04:53:55;10.43;;;9.33;;
1410;SDS011;700;51.906;8.404;2022-10-17T04:58:57;9.23;;;8.33;;
1410;SDS011;700;51.906;8.404;2022-10-17T05:03:58;10.03;;;9.13;;
1410;SDS011;700;51.906;8.404;2022-10-17T05:09:02;10.47;;;8.73;;
1410;SDS011;700;51.906;8.404;2022-10-17T05:14:03;9.27;;;8.47;;
1410;SDS011;700;51.906;8.404;2022-10-17T05:19:09;10.73;;;8.10;;
1410;SDS011;700;51.906;8.404;2022-10-17T05:24:13;8.97;;;7.93;;
1410;SDS011;700;51.906;8.404;2022-10-17T05:29:14;8.63;;;7.83;;
1410;SDS011;700;51.906;8.404;2022-10-17T05:34:15;11.20;;;9.30;;
1410;SDS011;700;51.906;8.404;2022-10-17T05:39:15;13.30;;;9.10;;
1410;SDS011;700;51.906;8.404;2022-10-17T05:44:18;9.67;;;8.87;;
1410;SDS011;700;51.906;8.404;2022-10-17T05:49:19;11.60;;;10.20;;
1410;SDS011;700;51.906;8.404;2022-10-17T05:54:24;10.80;;;9.70;;
1410;SDS011;700;51.906;8.404;2022-10-17T05:59:27;9.20;;;7.67;;
1410;SDS011;700;51.906;8.404;2022-10-17T06:04:28;9.23;;;8.33;;
1410;SDS011;700;51.906;8.404;2022-10-17T06:09:31;10.30;;;7.87;;
1410;SDS011;700;51.906;8.404;2022-10-17T06:14:32;11.20;;;9.43;;
1410;SDS011;700;51.906;8.404;2022-10-17T06:19:32;9.60;;;8.70;;
1410;SDS011;700;51.906;8.404;2022-10-17T06:24:33;11.07;;;8.10;;
1410;SDS011;700;51.906;8.404;2022-10-17T06:29:34;8.90;;;7.53;;
1410;SDS011;700;51.906;8.404;2022-10-17T06:34:34;9.47;;;8.50;;
1410;SDS011;700;51.906;8.404;2022-10-17T06:39:35;7.97;;;7.17;;
1410;SDS011;700;51.906;8.404;2022-10-17T06:44:36;8.63;;;7.87;;
1410;SDS011;700;51.906;8.404;2022-10-17T06:49:39;10.10;;;8.60;;
1410;SDS011;700;51.906;8.404;2022-10-17T06:54:39;8.70;;;7.93;;
1410;SDS011;700;51.906;8.404;2022-10-17T06:59:40;7.53;;;6.83;;
1410;SDS011;700;51.906;8.404;2022-10-17T07:04:41;8.87;;;7.33;;
1410;SDS011;700;51.906;8.404;2022-10-17T07:09:41;8.50;;;7.07;;
1410;SDS011;700;51.906;8.404;2022-10-17T07:14:42;15.03;;;7.23;;
1410;SDS011;700;51.906;8.404;2022-10-17T07:19:42;8.00;;;7.20;;
1410;SDS011;700;51.906;8.404;2022-10-17T07:24:43;10.30;;;7.23;;
1410;SDS011;700;51.906;8.404;2022-10-17T07:29:46;9.80;;;7.20;;
1410;SDS011;700;51.906;8.404;2022-10-17T07:34:46;8.13;;;7.33;;
1410;SDS011;700;51.906;8.404;2022-10-17T07:39:50;9.10;;;7.30;;
1410;SDS011;700;51.906;8.404;2022-10-17T07:44:50;9.60;;;6.53;;
1410;SDS011;700;51.906;8.404;2022-10-17T07:49:53;9.40;;;7.73;;
1410;SDS011;700;51.906;8.404;2022-10-17T07:54:54;11.00;;;7.30;;
1410;SDS011;700;51.906;8.404;2022-10-17T07:59:57;10.90;;;7.07;;
1410;SDS011;700;51.906;8.404;2022-10-17T08:04:57;9.37;;;6.43;;
1410;SDS011;700;51.906;8.404;2022-10-17T08:10:00;8.40;;;6.37;;
1410;SDS011;700;51.906;8.404;2022-10-17T08:15:01;7.03;;;6.00;;
1410;SDS011;700;51.906;8.404;2022-10-17T08:20:03;8.37;;;6.13;;
1410;SDS011;700;51.906;8.404;2022-10-17T08:25:04;8.10;;;5.60;;
1410;SDS011;700;51.906;8.404;2022-10-17T08:30:08;7.20;;;6.27;;
1410;SDS011;700;51.906;8.404;2022-10-17T08:35:09;5.90;;;5.30;;
1410;SDS011;700;51.906;8.404;2022-10-17T08:40:16;6.70;;;5.00;;
1410;SDS011;700;51.906;8.404;2022-10-17T08:50:42;4.90;;;4.10;;
1410;SDS011;700;51.906;8.404;2022-10-17T08:55:51;3.97;;;3.60;;
1410;SDS011;700;51.906;8.404;2022-10-17T09:06:10;6.60;;;4.27;;
1410;SDS011;700;51.906;8.404;2022-10-17T09:21:45;5.60;;;3.53;;
1410;SDS011;700;51.906;8.404;2022-10-17T09:26:46;4.83;;;4.40;;
1410;SDS011;700;51.906;8.404;2022-10-17T09:31:49;4.37;;;3.60;;
1410;SDS011;700;51.906;8.404;2022-10-17T09:37:04;6.73;;;3.20;;
1410;SDS011;700;51.906;8.404;2022-10-17T09:42:15;4.67;;;3.27;;
1410;SDS011;700;51.906;8.404;2022-10-17T09:52:38;0.93;;;0.50;;
1410;SDS011;700;51.906;8.404;2022-10-17T09:57:50;3.67;;;3.00;;
1410;SDS011;700;51.906;8.404;2022-10-17T10:08:16;6.43;;;3.77;;
1410;SDS011;700;51.906;8.404;2022-10-17T10:13:22;4.00;;;3.37;;
1410;SDS011;700;51.906;8.404;2022-10-17T10:23:34;7.73;;;3.83;;
1410;SDS011;700;51.906;8.404;2022-10-17T10:28:49;6.07;;;2.97;;
1410;SDS011;700;51.906;8.404;2022-10-17T10:33:51;6.10;;;3.30;;
1410;SDS011;700;51.906;8.404;2022-10-17T10:38:55;6.27;;;5.10;;
1410;SDS011;700;51.906;8.404;2022-10-17T10:43:59;6.60;;;2.83;;
1410;SDS011;700;51.906;8.404;2022-10-17T10:49:03;5.80;;;3.50;;
1410;SDS011;700;51.906;8.404;2022-10-17T10:54:25;4.13;;;3.10;;
1410;SDS011;700;51.906;8.404;2022-10-17T11:04:54;6.33;;;3.20;;
1410;SDS011;700;51.906;8.404;2022-10-17T11:15:35;12.30;;;3.97;;
1410;SDS011;700;51.906;8.404;2022-10-17T11:26:04;6.10;;;3.47;;
1410;SDS011;700;51.906;8.404;2022-10-17T11:31:12;4.33;;;3.50;;
1410;SDS011;700;51.906;8.404;2022-10-17T11:36:16;6.20;;;4.93;;
1410;SDS011;700;51.906;8.404;2022-10-17T11:41:27;8.57;;;3.97;;
1410;SDS011;700;51.906;8.404;2022-10-17T11:46:36;7.63;;;3.40;;
1410;SDS011;700;51.906;8.404;2022-10-17T11:51:42;9.87;;;3.80;;
1410;SDS011;700;51.906;8.404;2022-10-17T12:02:41;6.00;;;3.10;;
1410;SDS011;700;51.906;8.404;2022-10-17T12:18:31;7.03;;;3.50;;
1410;SDS011;700;51.906;8.404;2022-10-17T12:23:34;4.50;;;3.20;;
1410;SDS011;700;51.906;8.404;2022-10-17T12:28:44;7.60;;;3.70;;
1410;SDS011;700;51.906;8.404;2022-10-17T12:33:47;4.90;;;3.70;;
1410;SDS011;700;51.906;8.404;2022-10-17T12:44:10;7.47;;;3.73;;
1410;SDS011;700;51.906;8.404;2022-10-17T13:00:11;5.53;;;3.20;;
1410;SDS011;700;51.906;8.404;2022-10-17T13:05:26;10.53;;;3.40;;
1410;SDS011;700;51.906;8.404;2022-10-17T13:10:33;9.00;;;3.87;;
1410;SDS011;700;51.906;8.404;2022-10-17T13:15:36;6.03;;;3.67;;
1410;SDS011;700;51.906;8.404;2022-10-17T13:20:37;7.10;;;3.80;;
1410;SDS011;700;51.906;8.404;2022-10-17T13:25:37;12.63;;;4.07;;
1410;SDS011;700;51.906;8.404;2022-10-17T13:30:38;5.93;;;4.20;;
1410;SDS011;700;51.906;8.404;2022-10-17T13:35:41;7.77;;;4.00;;
1410;SDS011;700;51.906;8.404;2022-10-17T13:40:42;6.20;;;3.07;;
1410;SDS011;700;51.906;8.404;2022-10-17T13:45:49;3.67;;;3.27;;
1410;SDS011;700;51.906;8.404;2022-10-17T13:50:55;8.23;;;3.10;;
1410;SDS011;700;51.906;8.404;2022-10-17T13:55:59;8.20;;;3.70;;
1410;SDS011;700;51.906;8.404;2022-10-17T14:01:00;6.07;;;3.90;;
1410;SDS011;700;51.906;8.404;2022-10-17T14:11:17;7.80;;;3.80;;
1410;SDS011;700;51.906;8.404;2022-10-17T14:16:31;3.70;;;3.40;;
1410;SDS011;700;51.906;8.404;2022-10-17T14:21:35;8.70;;;4.77;;
1410;SDS011;700;51.906;8.404;2022-10-17T14:26:44;4.80;;;3.37;;
1410;SDS011;700;51.906;8.404;2022-10-17T14:31:55;8.90;;;4.23;;
1410;SDS011;700;51.906;8.404;2022-10-17T14:37:12;5.20;;;3.63;;
1410;SDS011;700;51.906;8.404;2022-10-17T14:42:19;5.40;;;3.47;;
1410;SDS011;700;51.906;8.404;2022-10-17T14:47:22;4.73;;;3.80;;
1410;SDS011;700;51.906;8.404;2022-10-17T14:52:28;8.10;;;3.43;;
1410;SDS011;700;51.906;8.404;2022-10-17T15:02:30;6.80;;;3.37;;
1410;SDS011;700;51.906;8.404;2022-10-17T15:07:31;7.73;;;4.10;;
1410;SDS011;700;51.906;8.404;2022-10-17T15:12:31;6.20;;;3.77;;
1410;SDS011;700;51.906;8.404;2022-10-17T15:17:32;9.60;;;5.90;;
1410;SDS011;700;51.906;8.404;2022-10-17T15:22:33;6.07;;;3.57;;
1410;SDS011;700;51.906;8.404;2022-10-17T15:27:38;5.20;;;3.43;;
1410;SDS011;700;51.906;8.404;2022-10-17T15:32:38;5.47;;;3.47;;
1410;SDS011;700;51.906;8.404;2022-10-17T15:37:42;6.40;;;3.77;;
1410;SDS011;700;51.906;8.404;2022-10-17T15:42:43;8.27;;;3.97;;
1410;SDS011;700;51.906;8.404;2022-10-17T15:47:48;6.60;;;3.67;;
1410;SDS011;700;51.906;8.404;2022-10-17T15:53:00;7.43;;;3.93;;
1410;SDS011;700;51.906;8.404;2022-10-17T15:58:00;7.70;;;4.73;;
1410;SDS011;700;51.906;8.404;2022-10-17T16:03:01;5.17;;;4.00;;
1410;SDS011;700;51.906;8.404;2022-10-17T16:08:02;9.07;;;3.70;;
1410;SDS011;700;51.906;8.404;2022-10-17T16:13:02;6.03;;;3.87;;
1410;SDS011;700;51.906;8.404;2022-10-17T16:18:03;5.70;;;4.10;;
1410;SDS011;700;51.906;8.404;2022-10-17T16:23:04;7.07;;;3.73;;
1410;SDS011;700;51.906;8.404;2022-10-17T16:28:07;10.87;;;4.80;;
1410;SDS011;700;51.906;8.404;2022-10-17T16:33:12;4.97;;;3.70;;
1410;SDS011;700;51.906;8.404;2022-10-17T16:38:13;6.17;;;4.53;;
1410;SDS011;700;51.906;8.404;2022-10-17T16:43:14;9.00;;;4.40;;
1410;SDS011;700;51.906;8.404;2022-10-17T16:48:15;12.07;;;5.20;;
1410;SDS011;700;51.906;8.404;2022-10-17T16:53:18;7.83;;;5.10;;
1410;SDS011;700;51.906;8.404;2022-10-17T16:58:19;10.67;;;5.77;;
1410;SDS011;700;51.906;8.404;2022-10-17T17:03:20;8.10;;;7.03;;
1410;SDS011;700;51.906;8.404;2022-10-17T17:08:23;8.00;;;6.17;;
1410;SDS011;700;51.906;8.404;2022-10-17T17:13:24;7.23;;;6.43;;
1410;SDS011;700;51.906;8.404;2022-10-17T17:18:25;8.50;;;6.87;;
1410;SDS011;700;51.906;8.404;2022-10-17T17:23:26;6.83;;;6.23;;
1410;SDS011;700;51.906;8.404;2022-10-17T17:28:27;11.37;;;7.00;;
1410;SDS011;700;51.906;8.404;2022-10-17T17:33:31;7.50;;;6.70;;
1410;SDS011;700;51.906;8.404;2022-10-17T17:38:33;8.13;;;7.33;;
1410;SDS011;700;51.906;8.404;2022-10-17T17:43:35;9.60;;;8.27;;
1410;SDS011;700;51.906;8.404;2022-10-17T17:48:36;8.37;;;7.50;;
1410;SDS011;700;51.906;8.404;2022-10-17T17:53:40;9.50;;;7.50;;
1410;SDS011;700;51.906;8.404;2022-10-17T17:58:42;12.40;;;11.23;;
1410;SDS011;700;51.906;8.404;2022-10-17T18:03:47;11.80;;;9.30;;
1410;SDS011;700;51.906;8.404;2022-10-17T18:08:53;10.87;;;9.70;;
1410;SDS011;700;51.906;8.404;2022-10-17T18:13:59;11.17;;;9.00;;
1410;SDS011;700;51.906;8.404;2022-10-17T18:19:04;10.97;;;9.90;;
1410;SDS011;700;51.906;8.404;2022-10-17T18:24:07;14.77;;;10.10;;
1410;SDS011;700;51.906;8.404;2022-10-17T18:29:13;11.53;;;9.70;;
1410;SDS011;700;51.906;8.404;2022-10-17T18:34:14;15.03;;;9.23;;
1410;SDS011;700;51.906;8.404;2022-10-17T18:39:14;12.27;;;9.73;;
1410;SDS011;700;51.906;8.404;2022-10-17T18:44:15;15.93;;;14.23;;
1410;SDS011;700;51.906;8.404;2022-10-17T18:49:18;12.57;;;10.43;;
1410;SDS011;700;51.906;8.404;2022-10-17T18:54:20;12.03;;;9.93;;
1410;SDS011;700;51.906;8.404;2022-10-17T18:59:21;12.57;;;10.50;;
1410;SDS011;700;51.906;8.404;2022-10-17T19:04:21;13.13;;;10.63;;
1410;SDS011;700;51.906;8.404;2022-10-17T19:09:25;14.57;;;10.90;;
1410;SDS011;700;51.906;8.404;2022-10-17T19:14:25;13.73;;;11.27;;
1410;SDS011;700;51.906;8.404;2022-10-17T19:19:27;15.70;;;11.33;;
1410;SDS011;700;51.906;8.404;2022-10-17T19:24:30;11.87;;;10.53;;
1410;SDS011;700;51.906;8.404;2022-10-17T19:29:31;13.30;;;11.00;;
1410;SDS011;700;51.906;8.404;2022-10-17T19:34:34;17.60;;;11.70;;
1410;SDS011;700;51.906;8.404;2022-10-17T19:39:35;14.50;;;13.20;;
1410;SDS011;700;51.906;8.404;2022-10-17T19:44:36;15.10;;;12.97;;
1410;SDS011;700;51.906;8.404;2022-10-17T19:49:39;14.60;;;12.60;;
1410;SDS011;700;51.906;8.404;2022-10-17T19:54:40;15.83;;;14.33;;
1410;SDS011;700;51.906;8.404;2022-10-17T19:59:40;15.33;;;13.30;;
1410;SDS011;700;51.906;8.404;2022-10-17T20:04:46;16.23;;;14.63;;
1410;SDS011;700;51.906;8.404;2022-10-17T20:09:46;17.97;;;16.07;;
1410;SDS011;700;51.906;8.404;2022-10-17T20:14:49;17.97;;;16.17;;
1410;SDS011;700;51.906;8.404;2022-10-17T20:19:52;18.40;;;16.60;;
1410;SDS011;700;51.906;8.404;2022-10-17T20:24:53;16.90;;;15.20;;
1410;SDS011;700;51.906;8.404;2022-10-17T20:29:53;17.40;;;15.70;;
1410;SDS011;700;51.906;8.404;2022-10-17T20:34:54;18.83;;;16.80;;
1410;SDS011;700;51.906;8.404;2022-10-17T20:39:59;18.80;;;17.00;;
1410;SDS011;700;51.906;8.404;2022-10-17T20:45:03;19.80;;;17.90;;
1410;SDS011;700;51.906;8.404;2022-10-17T20:50:05;19.63;;;17.60;;
1410;SDS011;700;51.906;8.404;2022-10-17T20:55:06;21.37;;;17.10;;
1410;SDS011;700;51.906;8.404;2022-10-17T21:00:07;20.57;;;18.40;;
1410;SDS011;700;51.906;8.404;2022-10-17T21:05:11;25.00;;;19.70;;
1410;SDS011;700;51.906;8.404;2022-10-17T21:10:14;21.83;;;19.63;;
1410;SDS011;700;51.906;8.404;2022-10-17T21:15:17;20.93;;;18.90;;
1410;SDS011;700;51.906;8.404;2022-10-17T21:20:17;23.77;;;21.27;;
1410;SDS011;700;51.906;8.404;2022-10-17T21:25:21;21.97;;;19.77;;
1410;SDS011;700;51.906;8.404;2022-10-17T21:30:21;20.80;;;18.60;;
1410;SDS011;700;51.906;8.404;2022-10-17T21:35:25;19.33;;;17.33;;
1410;SDS011;700;51.906;8.404;2022-10-17T21:40:25;24.13;;;21.17;;
1410;SDS011;700;51.906;8.404;2022-10-17T21:45:26;23.23;;;18.00;;
1410;SDS011;700;51.906;8.404;2022-10-17T21:50:26;21.10;;;19.10;;
1410;SDS011;700;51.906;8.404;2022-10-17T21:55:27;19.70;;;17.70;;
1410;SDS011;700;51.906;8.404;2022-10-17T22:00:28;18.40;;;16.63;;
1410;SDS011;700;51.906;8.404;2022-10-17T22:05:30;20.43;;;17.97;;
1410;SDS011;700;51.906;8.404;2022-10-17T22:10:31;19.37;;;17.50;;
1410;SDS011;700;51.906;8.404;2022-10-17T22:15:34;21.73;;;19.37;;
1410;SDS011;700;51.906;8.404;2022-10-17T22:20:35;21.90;;;19.80;;
1410;SDS011;700;51.906;8.404;2022-10-17T22:25:36;23.50;;;21.00;;
1410;SDS011;700;51.906;8.404;2022-10-17T22:30:39;21.50;;;18.97;;
1410;SDS011;700;51.906;8.404;2022-10-17T22:35:41;23.57;;;21.30;;
1410;SDS011;700;51.906;8.404;2022-10-17T22:40:43;23.23;;;20.43;;
1410;SDS011;700;51.906;8.404;2022-10-17T22:45:54;23.27;;;21.00;;
1410;SDS011;700;51.906;8.404;2022-10-17T22:50:57;21.87;;;19.73;;
1410;SDS011;700;51.906;8.404;2022-10-17T22:55:59;21.90;;;19.53;;
1410;SDS011;700;51.906;8.404;2022-10-17T23:01:23;22.47;;;20.27;;
1410;SDS011;700;51.906;8.404;2022-10-17T23:06:24;21.13;;;19.20;;
1410;SDS011;700;51.906;8.404;2022-10-17T23:11:27;20.77;;;18.53;;
1410;SDS011;700;51.906;8.404;2022-10-17T23:16:28;22.87;;;20.70;;
1410;SDS011;700;51.906;8.404;2022-10-17T23:21:28;21.93;;;19.73;;
1410;SDS011;700;51.906;8.404;2022-10-17T23:26:31;24.40;;;21.90;;
1410;SDS011;700;51.906;8.404;2022-10-17T23:31:32;20.63;;;18.53;;
1410;SDS011;700;51.906;8.404;2022-10-17T23:36:35;23.17;;;20.87;;
1410;SDS011;700;51.906;8.404;2022-10-17T23:41:39;21.70;;;19.37;;
1410;SDS011;700;51.906;8.404;2022-10-17T23:46:42;23.20;;;19.07;;
1410;SDS011;700;51.906;8.404;2022-10-17T23:51:42;21.73;;;19.43;;
1410;SDS011;700;51.906;8.404;2022-10-17T23:56:43;24.80;;;21.17;;
